Time;durP1;ratioP1;P1;durP2;ratioP2;P2;SDS_P1;SDS_P2;PMS_P1;PMS_P2;Temp;Humidity;BMP_temperature;BMP_pressure;BME280_temperature;BME280_humidity;BME280_pressure;Samples;Min_cycle;Max_cycle;Signal;HPM_P1;HPM_P2
2023/12/06 00:01:39;;;;;;;5.27;4.77;;;15.40;57.60;16.30;100055.00;;;;5050208;28;20214;-43
2023/12/06 00:04:05;;;;;;;4.93;4.53;;;15.40;57.60;16.30;100061.00;;;;5048292;28;20646;-43
2023/12/06 00:06:30;;;;;;;5.07;4.57;;;15.30;57.60;16.30;100060.00;;;;5050452;28;20391;-43
2023/12/06 00:08:57;;;;;;;5.00;4.60;;;15.30;57.60;16.30;100054.00;;;;5050144;28;20282;-43
2023/12/06 00:11:23;;;;;;;4.93;4.43;;;15.30;57.70;16.20;100059.00;;;;5050115;28;20343;-43
2023/12/06 00:13:49;;;;;;;4.80;4.40;;;15.30;57.70;16.20;100062.00;;;;5049883;28;20186;-43
2023/12/06 00:16:14;;;;;;;4.97;4.47;;;15.20;57.60;16.20;100070.00;;;;5049644;28;20194;-43
2023/12/06 00:18:41;;;;;;;4.60;4.20;;;15.20;57.50;16.20;100064.00;;;;5050124;28;20823;-43
2023/12/06 00:21:07;;;;;;;5.07;4.57;;;15.20;57.60;16.10;100067.00;;;;5049679;28;20265;-43
2023/12/06 00:23:33;;;;;;;5.00;4.60;;;15.20;57.60;16.10;100064.00;;;;5049562;28;20185;-43
2023/12/06 00:25:59;;;;;;;4.93;4.53;;;15.10;57.50;16.10;100074.00;;;;5049515;28;20206;-43
2023/12/06 00:28:25;;;;;;;4.90;4.50;;;15.10;57.40;16.10;100070.00;;;;5050055;28;20198;-43
2023/12/06 00:30:51;;;;;;;4.70;4.30;;;15.10;57.50;16.10;100062.00;;;;5049911;28;20563;-47
2023/12/06 00:33:16;;;;;;;5.17;4.67;;;15.10;57.50;16.00;100080.00;;;;5044277;28;20221;-42
2023/12/06 00:35:42;;;;;;;5.10;4.70;;;15.00;57.50;16.00;100067.00;;;;5048312;28;20236;-43
2023/12/06 00:38:09;;;;;;;5.43;4.93;;;15.10;57.60;16.00;100070.00;;;;5049323;28;20185;-43
2023/12/06 00:40:34;;;;;;;5.37;4.87;;;15.00;57.40;16.00;100084.00;;;;5048357;28;20197;-43
2023/12/06 00:43:03;;;;;;;5.37;4.87;;;15.00;57.40;15.90;100082.00;;;;5049166;28;20448;-43
2023/12/06 00:45:29;;;;;;;5.13;4.70;;;14.90;57.30;15.90;100087.00;;;;5049598;28;20205;-43
2023/12/06 00:47:55;;;;;;;5.10;4.60;;;15.00;57.50;15.90;100087.00;;;;5049538;28;20192;-42
2023/12/06 00:50:21;;;;;;;5.03;4.40;;;14.90;57.40;15.90;100089.00;;;;5049384;28;20191;-43
2023/12/06 00:52:46;;;;;;;5.63;5.13;;;14.90;57.30;15.90;100095.00;;;;5048014;28;20178;-42
2023/12/06 00:55:12;;;;;;;5.60;5.07;;;14.90;57.20;15.80;100088.00;;;;5047879;28;20675;-43
2023/12/06 00:57:38;;;;;;;5.77;5.27;;;14.80;57.20;15.80;100092.00;;;;5049416;28;20213;-43
2023/12/06 01:00:06;;;;;;;5.83;5.33;;;14.80;57.30;15.80;100095.00;;;;5049306;28;20197;-43
2023/12/06 01:02:32;;;;;;;5.50;5.00;;;14.80;57.30;15.80;100100.00;;;;5048166;28;20227;-43
2023/12/06 01:04:57;;;;;;;5.20;4.70;;;14.80;57.40;15.80;100111.00;;;;5048309;28;20237;-43
2023/12/06 01:07:23;;;;;;;5.60;5.10;;;14.80;57.40;15.80;100106.00;;;;5048448;28;20662;-43
2023/12/06 01:09:49;;;;;;;5.70;5.20;;;14.70;57.30;15.70;100104.00;;;;5048473;28;20182;-44
2023/12/06 01:12:15;;;;;;;5.70;5.20;;;14.70;57.30;15.70;100106.00;;;;5048040;28;20240;-44
2023/12/06 01:14:41;;;;;;;5.47;4.97;;;14.70;57.30;15.70;100114.00;;;;5047939;28;20218;-43
2023/12/06 01:17:06;;;;;;;7.13;4.97;;;14.70;57.30;15.70;100120.00;;;;5047424;28;20182;-44
2023/12/06 01:19:32;;;;;;;5.77;5.27;;;14.70;57.30;15.70;100112.00;;;;5048369;28;20652;-43
2023/12/06 01:21:58;;;;;;;6.10;5.60;;;14.70;57.30;15.60;100127.00;;;;5051017;28;20190;-43
2023/12/06 01:24:24;;;;;;;6.00;5.50;;;14.70;57.30;15.60;100123.00;;;;5051431;28;20214;-43
2023/12/06 01:26:50;;;;;;;5.67;5.17;;;14.60;57.30;15.60;100136.00;;;;5048784;28;20186;-43
2023/12/06 01:29:16;;;;;;;5.90;5.40;;;14.60;57.30;15.60;100135.00;;;;5048040;28;20196;-43
2023/12/06 01:31:42;;;;;;;5.40;4.90;;;14.60;57.30;15.60;100139.00;;;;5048150;28;20182;-43
2023/12/06 01:34:07;;;;;;;5.30;4.80;;;14.60;57.40;15.60;100145.00;;;;5042107;28;20202;-43
2023/12/06 01:36:34;;;;;;;5.57;5.07;;;14.60;57.40;15.60;100147.00;;;;5047951;28;20277;-43
2023/12/06 01:39:00;;;;;;;6.47;5.87;;;14.60;57.30;15.50;100148.00;;;;5047816;28;20186;-43
2023/12/06 01:41:26;;;;;;;4.97;4.57;;;14.60;57.30;15.50;100146.00;;;;5047917;28;20185;-43
2023/12/06 01:43:52;;;;;;;5.17;4.77;;;14.60;57.30;15.50;100153.00;;;;5047647;28;20605;-44
2023/12/06 01:46:18;;;;;;;5.50;5.03;;;14.50;57.30;15.50;100154.00;;;;5048189;28;20186;-42
2023/12/06 01:48:45;;;;;;;5.73;5.27;;;14.50;57.30;15.50;100159.00;;;;5047712;28;20704;-43
2023/12/06 01:51:10;;;;;;;5.73;5.23;;;14.50;57.30;15.50;100154.00;;;;5029692;28;20261;-43
2023/12/06 01:53:36;;;;;;;5.90;5.30;;;14.50;57.40;15.50;100162.00;;;;5046599;28;20178;-43
2023/12/06 01:56:02;;;;;;;5.97;5.47;;;14.50;57.40;15.40;100144.00;;;;5028593;28;20302;-43
2023/12/06 01:58:28;;;;;;;5.83;5.30;;;14.50;57.40;15.40;100147.00;;;;5030405;28;20173;-42
2023/12/06 02:00:55;;;;;;;6.10;5.50;;;14.40;57.40;15.40;100163.00;;;;5027706;28;20183;-43
2023/12/06 02:03:20;;;;;;;5.90;5.40;;;14.40;57.60;15.40;100157.00;;;;5047400;28;20166;-43
2023/12/06 02:05:46;;;;;;;6.27;5.67;;;14.40;57.60;15.40;100162.00;;;;5026648;28;20278;-43
2023/12/06 02:08:12;;;;;;;6.10;5.60;;;14.40;57.50;15.40;100163.00;;;;5047427;28;20178;-43
2023/12/06 02:10:38;;;;;;;6.10;5.57;;;14.40;57.60;15.40;100167.00;;;;5044486;28;20726;-43
2023/12/06 02:13:04;;;;;;;5.70;5.20;;;14.40;57.70;15.40;100172.00;;;;5046138;28;20555;-42
2023/12/06 02:15:29;;;;;;;6.10;5.60;;;14.40;57.60;15.30;100165.00;;;;5047010;28;20198;-43
2023/12/06 02:17:55;;;;;;;5.90;5.30;;;14.40;57.70;15.30;100178.00;;;;5046213;28;20174;-44
2023/12/06 02:20:21;;;;;;;6.10;5.50;;;14.40;57.70;15.30;100176.00;;;;5046068;28;20182;-44
2023/12/06 02:22:48;;;;;;;6.67;6.07;;;14.40;57.60;15.30;100187.00;;;;5046096;28;20247;-43
2023/12/06 02:25:15;;;;;;;6.57;5.97;;;14.30;57.60;15.30;100181.00;;;;5045198;28;20719;-44
2023/12/06 02:27:42;;;;;;;6.40;5.80;;;14.30;57.50;15.30;100179.00;;;;5049895;28;20340;-42
2023/12/06 02:30:09;;;;;;;6.90;6.30;;;14.30;57.50;15.30;100180.00;;;;5051973;28;20178;-43
2023/12/06 02:32:36;;;;;;;7.80;7.03;;;14.30;57.50;15.30;100179.00;;;;5049734;28;20178;-43
2023/12/06 02:35:03;;;;;;;8.57;7.77;;;14.20;57.30;15.20;100172.00;;;;5048948;28;20210;-43
2023/12/06 02:37:29;;;;;;;8.23;7.43;;;14.20;57.30;15.20;100195.00;;;;5049849;28;20596;-44
2023/12/06 02:39:55;;;;;;;8.07;7.27;;;14.20;57.40;15.20;100192.00;;;;5049619;28;20205;-43
2023/12/06 02:42:20;;;;;;;8.47;7.67;;;14.10;57.40;15.20;100180.00;;;;5032899;28;20199;-44
2023/12/06 02:44:46;;;;;;;8.70;7.90;;;14.10;57.30;15.20;100190.00;;;;5013064;28;20245;-44
2023/12/06 02:47:12;;;;;;;8.67;7.80;;;14.10;57.30;15.20;100197.00;;;;5032620;28;20175;-43
2023/12/06 02:49:38;;;;;;;8.70;7.90;;;14.10;57.40;15.10;100196.00;;;;5029752;28;20648;-44
2023/12/06 02:52:04;;;;;;;9.30;8.40;;;14.10;57.50;15.10;100175.00;;;;5049194;28;20202;-43
2023/12/06 02:54:29;;;;;;;9.93;8.93;;;14.10;57.60;15.10;100180.00;;;;5048073;28;20779;-43
2023/12/06 02:56:55;;;;;;;9.77;8.83;;;14.10;57.60;15.10;100203.00;;;;5049444;28;20224;-43
2023/12/06 02:59:21;;;;;;;10.00;9.03;;;14.00;57.60;15.10;100196.00;;;;5050637;28;20185;-44
2023/12/06 03:01:50;;;;;;;10.97;9.87;;;14.00;57.60;15.10;100199.00;;;;5050758;28;20194;-44
2023/12/06 03:04:15;;;;;;;11.40;10.30;;;14.00;57.50;15.10;100211.00;;;;5043252;28;20209;-43
2023/12/06 03:06:41;;;;;;;11.90;10.80;;;14.00;57.40;15.00;100198.00;;;;5049243;28;20662;-43
2023/12/06 03:09:07;;;;;;;11.43;10.33;;;13.90;57.30;15.00;100204.00;;;;5050272;28;20179;-44
2023/12/06 03:11:33;;;;;;;13.10;11.87;;;13.90;57.30;14.90;100204.00;;;;5050326;28;20197;-43
2023/12/06 03:14:01;;;;;;;12.77;11.47;;;13.90;57.20;14.90;100205.00;;;;5049780;28;20182;-44
2023/12/06 03:16:27;;;;;;;12.60;11.40;;;13.90;57.30;15.00;100223.00;;;;5050078;28;20213;-44
2023/12/06 03:18:53;;;;;;;12.77;11.47;;;13.80;57.30;14.90;100207.00;;;;5050128;28;20659;-43
2023/12/06 03:21:19;;;;;;;13.53;12.23;;;13.90;57.30;14.90;100224.00;;;;5050091;28;20269;-43
2023/12/06 03:23:44;;;;;;;13.23;11.97;;;13.80;57.20;14.90;100214.00;;;;5050038;28;20189;-44
2023/12/06 03:26:10;;;;;;;13.97;12.57;;;13.80;57.10;14.90;100204.00;;;;5049620;28;20618;-44
2023/12/06 03:28:36;;;;;;;13.77;12.47;;;13.80;57.80;14.90;100225.00;;;;5049976;28;20182;-43
2023/12/06 03:31:02;;;;;;;12.37;11.27;;;13.80;57.30;14.80;100218.00;;;;5049749;28;20212;-44
2023/12/06 03:33:27;;;;;;;12.57;11.37;;;13.80;57.30;14.90;100216.00;;;;5044454;28;20261;-44
2023/12/06 03:35:53;;;;;;;13.60;12.20;;;13.80;57.30;14.80;100208.00;;;;5047626;28;20218;-44
2023/12/06 03:38:19;;;;;;;13.20;11.90;;;13.70;57.30;14.80;100216.00;;;;5047889;28;20182;-44
2023/12/06 03:40:44;;;;;;;13.80;12.50;;;13.70;57.30;14.80;100209.00;;;;5048464;28;20258;-43
2023/12/06 03:43:10;;;;;;;12.97;11.77;;;13.70;57.30;14.80;100225.00;;;;5049218;28;20202;-43
2023/12/06 03:45:36;;;;;;;13.63;12.33;;;13.70;57.30;14.80;100224.00;;;;5049527;28;20205;-44
2023/12/06 03:48:01;;;;;;;13.47;12.17;;;13.70;57.30;14.80;100232.00;;;;5049337;28;20762;-43
2023/12/06 03:50:27;;;;;;;13.23;11.93;;;13.70;57.30;14.80;100235.00;;;;5049578;28;20181;-42
2023/12/06 03:52:53;;;;;;;13.40;12.00;;;13.70;57.30;14.80;100239.00;;;;5049152;28;20182;-43
2023/12/06 03:55:19;;;;;;;13.37;12.07;;;13.70;57.30;14.70;100240.00;;;;5049127;28;20225;-43
2023/12/06 03:57:44;;;;;;;12.60;11.40;;;13.70;57.30;14.70;100241.00;;;;5049543;28;20182;-42
2023/12/06 04:00:11;;;;;;;12.70;11.50;;;13.60;57.30;14.70;100253.00;;;;5049296;28;20524;-42
2023/12/06 04:02:37;;;;;;;12.67;11.43;;;13.70;57.40;14.70;100264.00;;;;5049953;28;20190;-44
2023/12/06 04:05:03;;;;;;;12.80;11.60;;;13.60;57.30;14.70;100248.00;;;;5049861;28;20206;-43
2023/12/06 04:07:29;;;;;;;11.57;10.57;;;13.70;57.40;14.70;100253.00;;;;5050305;28;20186;-43
2023/12/06 04:09:54;;;;;;;12.13;11.03;;;13.70;57.40;14.60;100263.00;;;;5049986;28;20186;-43
2023/12/06 04:12:20;;;;;;;12.67;11.47;;;13.60;57.20;14.60;100256.00;;;;5050015;28;20174;-43
2023/12/06 04:14:46;;;;;;;12.37;11.20;;;13.60;57.20;14.60;100272.00;;;;5049907;28;20918;-43
2023/12/06 04:17:11;;;;;;;12.17;11.10;;;13.60;57.30;14.60;100264.00;;;;5049717;28;20185;-43
2023/12/06 04:19:38;;;;;;;12.20;11.10;;;13.60;57.30;14.60;100267.00;;;;5054115;28;20245;-44
2023/12/06 04:22:04;;;;;;;11.47;10.27;;;13.60;57.40;14.60;100262.00;;;;5051281;28;20213;-43
2023/12/06 04:24:30;;;;;;;11.50;10.40;;;13.60;57.50;14.60;100263.00;;;;5049554;28;20685;-43
2023/12/06 04:26:56;;;;;;;10.60;9.67;;;13.60;57.60;14.60;100270.00;;;;5049987;28;20217;-42
2023/12/06 04:29:22;;;;;;;11.80;10.60;;;13.60;57.60;14.60;100269.00;;;;5042582;28;20265;-44
2023/12/06 04:31:48;;;;;;;12.33;10.47;;;13.60;57.80;14.60;100282.00;;;;5049470;28;20186;-43
2023/12/06 04:34:14;;;;;;;11.37;10.27;;;13.60;58.10;14.60;100274.00;;;;5043672;28;20206;-46
2023/12/06 04:36:40;;;;;;;10.27;9.27;;;13.60;57.80;14.60;100278.00;;;;5049689;28;20182;-43
2023/12/06 04:39:05;;;;;;;10.93;9.90;;;13.60;57.60;14.60;100277.00;;;;5048091;28;20674;-43
2023/12/06 04:41:31;;;;;;;11.30;10.17;;;13.60;57.80;14.60;100274.00;;;;5043994;28;20217;-43
2023/12/06 04:43:57;;;;;;;9.90;9.10;;;13.60;57.80;14.60;100283.00;;;;5046616;28;20174;-43
2023/12/06 04:46:23;;;;;;;10.77;9.67;;;13.60;57.80;14.60;100298.00;;;;5047705;28;20198;-43
2023/12/06 04:48:49;;;;;;;10.13;9.23;;;13.60;57.80;14.60;100293.00;;;;5049137;28;20185;-43
2023/12/06 04:51:15;;;;;;;10.50;9.50;;;13.60;57.80;14.50;100291.00;;;;5048014;28;20257;-43
2023/12/06 04:53:41;;;;;;;10.37;9.47;;;13.60;57.80;14.50;100295.00;;;;5048391;28;20185;-43
2023/12/06 04:56:08;;;;;;;9.60;8.70;;;13.50;57.80;14.50;100298.00;;;;5048472;28;20214;-43
2023/12/06 04:58:34;;;;;;;10.00;9.10;;;13.60;57.80;14.50;100306.00;;;;5049028;28;20201;-43
2023/12/06 05:01:00;;;;;;;9.67;8.87;;;13.50;57.70;14.50;100311.00;;;;5048058;28;20271;-43
2023/12/06 05:03:26;;;;;;;9.90;9.00;;;13.50;57.80;14.50;100311.00;;;;5042424;28;20648;-42
2023/12/06 05:05:51;;;;;;;9.87;8.97;;;13.50;57.80;14.50;100308.00;;;;5048154;28;20840;-43
2023/12/06 05:08:17;;;;;;;10.00;9.10;;;13.50;57.70;14.50;100315.00;;;;5048183;28;20542;-43
2023/12/06 05:10:43;;;;;;;9.67;8.87;;;13.50;57.70;14.40;100312.00;;;;5048490;28;20189;-43
2023/12/06 05:13:09;;;;;;;9.60;8.60;;;13.40;57.70;14.40;100319.00;;;;5048066;28;20212;-44
2023/12/06 05:15:34;;;;;;;9.43;8.63;;;13.40;57.60;14.40;100316.00;;;;5047704;28;20245;-43
2023/12/06 05:18:01;;;;;;;11.33;10.13;;;13.40;57.60;14.40;100336.00;;;;5047584;28;20189;-41
2023/12/06 05:20:27;;;;;;;11.37;10.37;;;13.40;57.60;14.40;100325.00;;;;5047927;28;20174;-41
2023/12/06 05:22:53;;;;;;;10.37;9.40;;;13.40;57.60;14.40;100337.00;;;;5047957;28;20263;-42
2023/12/06 05:25:19;;;;;;;11.70;10.47;;;13.40;57.60;14.40;100335.00;;;;5047909;28;20905;-50
2023/12/06 05:27:45;;;;;;;12.47;9.80;;;13.30;57.60;14.30;100336.00;;;;5047891;28;20596;-42
2023/12/06 05:30:11;;;;;;;11.57;10.33;;;13.30;57.60;14.30;100346.00;;;;5055476;28;20185;-42
2023/12/06 05:32:37;;;;;;;11.33;10.23;;;13.30;57.60;14.30;100332.00;;;;5048270;28;20660;-42
2023/12/06 05:35:05;;;;;;;11.37;10.27;;;13.30;57.60;14.30;100340.00;;;;5015369;28;20207;-42
2023/12/06 05:37:31;;;;;;;10.77;9.67;;;13.30;57.60;14.30;100340.00;;;;5048339;28;20224;-44
2023/12/06 05:39:56;;;;;;;12.83;11.63;;;13.30;57.60;14.20;100343.00;;;;5048251;28;20174;-43
2023/12/06 05:42:22;;;;;;;13.70;12.30;;;13.20;57.50;14.20;100346.00;;;;5063319;28;20197;-43
2023/12/06 05:44:49;;;;;;;16.60;14.27;;;13.10;57.40;14.10;100358.00;;;;5047975;28;20232;-43
2023/12/06 05:47:14;;;;;;;16.50;14.80;;;12.90;56.90;14.10;100352.00;;;;5048364;28;20240;-43
2023/12/06 05:49:41;;;;;;;16.33;14.73;;;12.80;56.80;14.00;100347.00;;;;5048478;28;20182;-42
2023/12/06 05:52:06;;;;;;;15.70;14.20;;;12.80;57.10;14.00;100348.00;;;;5048296;28;20648;-42
2023/12/06 05:54:32;;;;;;;22.13;14.63;;;12.90;57.20;14.00;100353.00;;;;5048188;28;20221;-42
2023/12/06 05:56:58;;;;;;;21.40;14.30;;;12.90;57.20;14.00;100348.00;;;;5035203;28;20187;-42
2023/12/06 05:59:24;;;;;;;16.17;13.97;;;12.90;57.20;14.00;100364.00;;;;5042830;28;20179;-42
2023/12/06 06:01:49;;;;;;;16.13;13.53;;;12.90;57.30;14.00;100360.00;;;;5045941;28;20683;-45
2023/12/06 06:04:16;;;;;;;15.70;13.83;;;13.00;57.30;13.80;100367.00;;;;5045044;28;20253;-43
2023/12/06 06:06:41;;;;;;;17.87;14.37;;;12.90;57.30;14.00;100371.00;;;;5051665;28;20209;-43
2023/12/06 06:09:07;;;;;;;18.77;12.93;;;12.90;57.20;14.00;100373.00;;;;5051762;28;20254;-43
2023/12/06 06:11:33;;;;;;;16.90;12.87;;;13.00;57.60;14.00;100370.00;;;;5052016;28;20585;-43
2023/12/06 06:13:58;;;;;;;15.87;11.80;;;13.10;58.30;14.00;100370.00;;;;5050962;28;20182;-43
2023/12/06 06:16:24;;;;;;;15.17;11.70;;;13.10;57.60;14.00;100371.00;;;;5051773;28;20187;-43
2023/12/06 06:18:50;;;;;;;14.97;12.37;;;13.10;57.70;14.00;100385.00;;;;5051947;28;20253;-43
2023/12/06 06:21:16;;;;;;;14.13;11.33;;;13.10;57.70;14.00;100378.00;;;;5050986;28;20167;-43
2023/12/06 06:23:41;;;;;;;12.00;10.70;;;13.20;58.00;14.10;100382.00;;;;5051260;28;20186;-44
2023/12/06 06:26:09;;;;;;;11.17;9.70;;;13.30;58.00;14.10;100389.00;;;;5051406;28;20610;-43
2023/12/06 06:28:34;;;;;;;10.57;9.07;;;13.40;58.10;14.20;100383.00;;;;5051857;28;20182;-43
2023/12/06 06:31:00;;;;;;;15.53;9.77;;;13.40;57.90;14.30;100382.00;;;;5051726;28;20178;-43
2023/12/06 06:33:26;;;;;;;12.37;8.63;;;13.60;57.80;14.40;100385.00;;;;5045966;28;20545;-43
2023/12/06 06:35:51;;;;;;;9.73;8.43;;;13.70;57.90;14.50;100398.00;;;;5051172;28;20218;-44
2023/12/06 06:38:17;;;;;;;8.93;7.90;;;13.80;57.80;14.50;100383.00;;;;5051136;28;20181;-43
2023/12/06 06:40:43;;;;;;;8.80;7.90;;;14.00;57.70;14.70;100394.00;;;;5051451;28;20182;-43
2023/12/06 06:43:09;;;;;;;8.90;7.40;;;14.20;57.60;14.80;100399.00;;;;5051020;28;20179;-43
2023/12/06 06:45:35;;;;;;;7.23;6.40;;;14.40;57.50;14.90;100395.00;;;;5051306;28;20229;-43
2023/12/06 06:48:01;;;;;;;7.27;6.57;;;14.50;57.30;15.00;100386.00;;;;5051155;28;20320;-43
2023/12/06 06:50:27;;;;;;;7.47;6.67;;;14.70;57.30;15.10;100391.00;;;;5051352;28;20723;-43
2023/12/06 06:52:52;;;;;;;6.80;6.00;;;14.80;57.20;15.30;100388.00;;;;5049723;28;20179;-42
2023/12/06 06:55:18;;;;;;;7.50;6.30;;;15.00;57.60;15.40;100386.00;;;;5050932;28;20922;-42
2023/12/06 06:57:44;;;;;;;6.77;6.07;;;15.10;57.00;15.50;100400.00;;;;5049994;28;20181;-42
2023/12/06 07:00:10;;;;;;;6.37;5.77;;;15.30;56.80;15.60;100396.00;;;;5051378;28;20174;-43
2023/12/06 07:02:35;;;;;;;6.13;5.53;;;15.40;56.80;15.70;100401.00;;;;5047594;28;20190;-42
2023/12/06 07:05:02;;;;;;;5.70;5.20;;;15.50;56.70;15.90;100399.00;;;;5049042;28;20229;-43
2023/12/06 07:07:28;;;;;;;7.07;5.20;;;15.60;56.70;16.00;100415.00;;;;5050736;28;20166;-42
2023/12/06 07:09:53;;;;;;;5.77;5.17;;;15.70;56.70;16.10;100413.00;;;;5051070;28;20273;-42
2023/12/06 07:12:20;;;;;;;5.30;4.80;;;15.90;56.70;16.20;100414.00;;;;5050665;28;20626;-42
2023/12/06 07:14:46;;;;;;;5.47;4.90;;;15.90;56.60;16.30;100425.00;;;;5049094;28;20674;-44
2023/12/06 07:17:11;;;;;;;5.03;4.47;;;16.00;56.60;16.40;100425.00;;;;5050493;28;20178;-42
2023/12/06 07:19:37;;;;;;;4.67;4.27;;;16.10;56.60;16.50;100418.00;;;;5050326;28;20185;-42
2023/12/06 07:22:03;;;;;;;5.00;4.60;;;16.20;56.60;16.60;100422.00;;;;5050565;28;20174;-42
2023/12/06 07:24:29;;;;;;;4.73;4.33;;;16.30;56.60;16.70;100425.00;;;;5050003;28;20190;-42
2023/12/06 07:26:55;;;;;;;5.20;4.70;;;16.40;56.70;16.70;100434.00;;;;5050455;28;20229;-42
2023/12/06 07:29:20;;;;;;;4.97;4.57;;;16.40;56.60;16.80;100430.00;;;;5050387;28;20179;-42
2023/12/06 07:31:46;;;;;;;5.03;4.63;;;16.50;56.60;16.90;100434.00;;;;5050613;28;20174;-42
2023/12/06 07:34:12;;;;;;;4.60;4.20;;;16.60;56.70;16.90;100436.00;;;;5043805;28;20183;-41
2023/12/06 07:36:37;;;;;;;5.20;4.40;;;16.60;56.70;17.00;100438.00;;;;5049753;28;20179;-42
2023/12/06 07:39:05;;;;;;;6.20;4.63;;;16.60;56.80;17.00;100444.00;;;;5050323;28;20609;-42
2023/12/06 07:41:31;;;;;;;4.73;4.33;;;16.60;56.90;17.10;100441.00;;;;5047713;28;20254;-42
2023/12/06 07:43:57;;;;;;;5.50;4.07;;;16.60;57.00;17.10;100436.00;;;;5048738;28;20184;-42
2023/12/06 07:46:22;;;;;;;4.20;3.90;;;16.70;57.10;17.20;100449.00;;;;5047635;28;20202;-42
2023/12/06 07:48:48;;;;;;;4.40;4.00;;;16.70;57.00;17.20;100446.00;;;;5049916;28;20668;-42
2023/12/06 07:51:14;;;;;;;4.20;3.80;;;16.70;57.00;17.20;100452.00;;;;5049228;28;20176;-43
2023/12/06 07:53:39;;;;;;;4.37;3.97;;;16.70;57.20;17.30;100460.00;;;;5044960;28;20180;-43
2023/12/06 07:56:06;;;;;;;4.43;4.03;;;16.80;57.30;17.30;100451.00;;;;5048688;28;20221;-43
2023/12/06 07:58:32;;;;;;;3.90;3.60;;;16.80;57.30;17.30;100447.00;;;;5049815;28;20182;-43
2023/12/06 08:00:59;;;;;;;4.30;3.90;;;16.80;57.30;17.30;100452.00;;;;5050100;28;20191;-42
2023/12/06 08:03:30;;;;;;;4.23;3.83;;;16.80;57.40;17.40;100461.00;;;;5047779;28;20591;-42
2023/12/06 08:05:55;;;;;;;4.03;3.73;;;16.80;57.40;17.40;100454.00;;;;5048991;28;20211;-42
2023/12/06 08:08:21;;;;;;;4.50;4.10;;;16.80;57.40;17.40;100458.00;;;;5050160;28;20669;-43
2023/12/06 08:10:47;;;;;;;4.80;3.90;;;16.80;57.50;17.40;100472.00;;;;5046199;28;20274;-42
2023/12/06 08:13:13;;;;;;;3.70;3.40;;;16.80;57.50;17.50;100461.00;;;;5043561;28;20315;-42
2023/12/06 08:15:38;;;;;;;4.00;3.70;;;16.90;57.60;17.50;100468.00;;;;5049080;28;20288;-43
2023/12/06 08:18:06;;;;;;;3.93;3.60;;;16.90;57.60;17.50;100475.00;;;;5049485;28;20167;-42
2023/12/06 08:20:32;;;;;;;5.03;3.77;;;16.90;57.80;17.50;100467.00;;;;5049788;28;20206;-43
2023/12/06 08:22:58;;;;;;;3.97;3.67;;;16.90;58.00;17.50;100487.00;;;;5047959;28;20231;-43
2023/12/06 08:25:24;;;;;;;4.63;3.80;;;16.80;58.20;17.50;100485.00;;;;5048844;28;20205;-43
2023/12/06 08:27:49;;;;;;;6.40;4.10;;;16.80;58.30;17.50;100487.00;;;;5049507;28;20227;-43
2023/12/06 08:30:15;;;;;;;4.37;3.60;;;16.90;58.50;17.50;100483.00;;;;5049268;28;20181;-42
2023/12/06 08:32:41;;;;;;;4.90;3.60;;;16.90;58.50;17.50;100499.00;;;;5048847;28;20174;-43
2023/12/06 08:35:07;;;;;;;4.30;3.90;;;16.80;58.50;17.50;100493.00;;;;5038319;28;20772;-42
2023/12/06 08:37:33;;;;;;;4.00;3.50;;;16.80;58.60;17.50;100504.00;;;;5050473;28;20676;-42
2023/12/06 08:39:59;;;;;;;4.10;3.80;;;16.80;58.60;17.50;100494.00;;;;5049854;28;20177;-44
2023/12/06 08:42:25;;;;;;;4.23;3.83;;;16.80;58.70;17.50;100500.00;;;;5049340;28;20271;-43
2023/12/06 08:44:50;;;;;;;4.07;3.70;;;16.70;58.70;17.50;100500.00;;;;5045018;28;20214;-43
2023/12/06 08:47:17;;;;;;;3.87;3.57;;;16.70;58.80;17.50;100499.00;;;;5049324;28;20188;-42
2023/12/06 08:49:43;;;;;;;3.80;3.40;;;16.70;58.80;17.50;100493.00;;;;5049779;28;20287;-43
2023/12/06 08:52:10;;;;;;;4.33;3.73;;;16.60;58.90;17.40;100501.00;;;;5049388;28;20184;-43
2023/12/06 08:54:36;;;;;;;4.47;4.07;;;16.60;58.90;17.40;100499.00;;;;5049112;28;20200;-44
2023/12/06 08:57:03;;;;;;;3.97;3.57;;;16.60;59.00;17.40;100503.00;;;;5049055;28;20440;-42
2023/12/06 08:59:29;;;;;;;4.27;3.63;;;16.60;59.10;17.40;100505.00;;;;5049366;28;20175;-43
2023/12/06 09:01:55;;;;;;;4.33;3.50;;;16.50;59.00;17.30;100500.00;;;;5049004;28;20197;-43
2023/12/06 09:04:21;;;;;;;3.57;3.27;;;16.50;59.10;17.30;100510.00;;;;5042694;28;20189;-43
2023/12/06 09:06:47;;;;;;;3.93;3.57;;;16.50;59.20;17.30;100508.00;;;;5047977;28;20180;-42
2023/12/06 09:09:17;;;;;;;3.70;3.40;;;16.40;59.20;17.20;100516.00;;;;5048932;28;20175;-42
2023/12/06 09:11:45;;;;;;;3.70;3.40;;;16.40;59.20;17.20;100521.00;;;;5049063;28;20204;-42
2023/12/06 09:14:11;;;;;;;3.80;3.30;;;16.40;59.30;17.20;100513.00;;;;5048607;28;20184;-43
2023/12/06 09:16:38;;;;;;;3.40;3.10;;;16.40;59.40;17.20;100527.00;;;;5048850;28;20177;-43
2023/12/06 09:19:04;;;;;;;3.70;3.40;;;16.30;59.30;17.10;100516.00;;;;5048886;28;20302;-45
2023/12/06 09:21:40;;;;;;;3.77;3.47;;;16.30;59.40;17.10;100526.00;;;;5049052;28;20173;-43
2023/12/06 09:24:08;;;;;;;3.60;3.30;;;16.20;59.40;17.10;100529.00;;;;5048744;28;20234;-43
2023/12/06 09:26:33;;;;;;;3.70;3.40;;;16.20;59.50;17.00;100521.00;;;;5041500;28;20177;-43
2023/12/06 09:29:01;;;;;;;4.43;3.60;;;16.20;59.50;17.00;100528.00;;;;5048555;28;20712;-43
2023/12/06 09:31:27;;;;;;;3.63;3.33;;;16.20;59.60;17.00;100531.00;;;;5046889;28;20177;-42
2023/12/06 09:33:53;;;;;;;3.80;3.50;;;16.10;59.50;17.00;100543.00;;;;5039696;28;20730;-42
2023/12/06 09:36:19;;;;;;;3.53;3.20;;;16.10;59.60;17.00;100548.00;;;;5049060;28;20217;-42
2023/12/06 09:38:44;;;;;;;4.00;3.37;;;16.10;59.70;16.90;100538.00;;;;5052828;28;20187;-42
2023/12/06 09:41:11;;;;;;;3.40;3.10;;;16.00;59.60;16.90;100546.00;;;;5052829;28;20523;-42
2023/12/06 09:43:36;;;;;;;3.40;3.10;;;16.00;59.70;16.90;100552.00;;;;5031526;28;20182;-43
2023/12/06 09:46:03;;;;;;;4.10;3.30;;;15.90;59.70;16.80;100549.00;;;;5047550;28;20219;-43
2023/12/06 09:48:29;;;;;;;3.60;3.30;;;15.90;59.70;16.80;100554.00;;;;5051702;28;20186;-42
2023/12/06 09:50:55;;;;;;;3.67;3.37;;;15.90;59.70;16.80;100552.00;;;;5051671;28;20192;-42
2023/12/06 09:53:21;;;;;;;3.73;3.33;;;15.90;59.70;16.80;100561.00;;;;5051636;28;20179;-42
2023/12/06 09:55:47;;;;;;;3.90;3.60;;;15.90;59.70;16.70;100560.00;;;;5052915;28;20208;-42
2023/12/06 09:58:15;;;;;;;3.17;2.97;;;15.90;59.80;16.70;100567.00;;;;5047426;28;20179;-42
2023/12/06 10:00:41;;;;;;;3.60;3.30;;;15.80;59.80;16.70;100555.00;;;;5050540;28;20627;-42
2023/12/06 10:03:09;;;;;;;3.40;3.10;;;15.80;59.90;16.70;100494.00;;;;5051634;28;20265;-42
2023/12/06 10:05:34;;;;;;;3.60;3.30;;;15.70;59.80;16.60;100565.00;;;;5050429;28;20217;-42
2023/12/06 10:08:00;;;;;;;3.50;3.20;;;15.70;59.90;16.60;100571.00;;;;5046641;28;20186;-43
2023/12/06 10:10:26;;;;;;;3.40;3.10;;;15.70;59.90;16.60;100570.00;;;;5052073;28;20182;-42
2023/12/06 10:12:53;;;;;;;3.70;3.40;;;15.70;59.80;16.60;100576.00;;;;5051742;28;20305;-44
2023/12/06 10:15:19;;;;;;;3.50;3.20;;;15.70;59.80;16.60;100583.00;;;;5048370;28;20203;-42
2023/12/06 10:17:48;;;;;;;3.50;3.20;;;15.80;59.70;16.60;100588.00;;;;5051617;28;20649;-42
2023/12/06 10:20:14;;;;;;;3.20;3.00;;;15.80;59.60;16.60;100577.00;;;;5051652;28;20450;-42
2023/12/06 10:22:41;;;;;;;4.07;3.20;;;15.90;59.70;16.70;100581.00;;;;5050257;28;20186;-42
2023/12/06 10:25:08;;;;;;;3.40;3.10;;;15.90;59.50;16.70;100570.00;;;;5047361;28;20216;-42
2023/12/06 10:27:37;;;;;;;4.73;3.27;;;15.90;59.50;16.70;100586.00;;;;5051037;28;20179;-41
2023/12/06 10:30:04;;;;;;;5.97;3.33;;;15.90;59.60;16.70;100581.00;;;;5051829;28;20180;-42
2023/12/06 10:32:31;;;;;;;5.07;3.60;;;16.00;59.90;16.70;100579.00;;;;5051124;28;20192;-42
2023/12/06 10:35:01;;;;;;;7.37;3.33;;;15.90;60.00;16.70;100579.00;;;;5049089;28;20213;-42
2023/12/06 10:37:27;;;;;;;5.90;3.63;;;16.00;59.80;16.70;100574.00;;;;5044596;28;20170;-42